sensor_id;sensor_type;location;lat;lon;timestamp;P1;durP1;ratioP1;P2;durP2;ratioP2
78148;SDS011;67396;42.664;23.382;2023-03-13T00:00:26;10.10;;;6.32;;
78148;SDS011;67396;42.664;23.382;2023-03-13T00:02:52;7.63;;;5.45;;
78148;SDS011;67396;42.664;23.382;2023-03-13T00:05:17;9.70;;;6.05;;
78148;SDS011;67396;42.664;23.382;2023-03-13T00:07:43;8.30;;;5.28;;
78148;SDS011;67396;42.664;23.382;2023-03-13T00:10:08;8.18;;;5.55;;
78148;SDS011;67396;42.664;23.382;2023-03-13T00:12:34;9.13;;;5.70;;
78148;SDS011;67396;42.664;23.382;2023-03-13T00:14:59;7.80;;;5.13;;
78148;SDS011;67396;42.664;23.382;2023-03-13T00:17:25;10.38;;;6.55;;
78148;SDS011;67396;42.664;23.382;2023-03-13T00:19:50;5.90;;;4.38;;
78148;SDS011;67396;42.664;23.382;2023-03-13T00:22:15;9.60;;;6.35;;
78148;SDS011;67396;42.664;23.382;2023-03-13T00:24:41;10.55;;;6.28;;
78148;SDS011;67396;42.664;23.382;2023-03-13T00:27:06;7.57;;;5.43;;
78148;SDS011;67396;42.664;23.382;2023-03-13T00:31:57;9.60;;;5.30;;
78148;SDS011;67396;42.664;23.382;2023-03-13T00:34:23;6.53;;;5.13;;
78148;SDS011;67396;42.664;23.382;2023-03-13T00:36:51;7.60;;;5.40;;
78148;SDS011;67396;42.664;23.382;2023-03-13T00:39:17;9.40;;;4.72;;
78148;SDS011;67396;42.664;23.382;2023-03-13T00:41:42;7.30;;;4.90;;
78148;SDS011;67396;42.664;23.382;2023-03-13T00:44:08;9.48;;;5.68;;
78148;SDS011;67396;42.664;23.382;2023-03-13T00:46:34;7.18;;;5.07;;
78148;SDS011;67396;42.664;23.382;2023-03-13T00:48:59;9.05;;;5.53;;
78148;SDS011;67396;42.664;23.382;2023-03-13T00:53:51;8.57;;;5.63;;
78148;SDS011;67396;42.664;23.382;2023-03-13T00:56:18;9.95;;;5.70;;
78148;SDS011;67396;42.664;23.382;2023-03-13T00:58:45;8.85;;;5.55;;
78148;SDS011;67396;42.664;23.382;2023-03-13T01:01:12;8.70;;;6.03;;
78148;SDS011;67396;42.664;23.382;2023-03-13T01:03:41;9.10;;;5.40;;
78148;SDS011;67396;42.664;23.382;2023-03-13T01:06:10;10.70;;;5.88;;
78148;SDS011;67396;42.664;23.382;2023-03-13T01:08:37;8.20;;;5.13;;
78148;SDS011;67396;42.664;23.382;2023-03-13T01:13:32;9.07;;;5.70;;
78148;SDS011;67396;42.664;23.382;2023-03-13T01:18:32;8.10;;;5.30;;
78148;SDS011;67396;42.664;23.382;2023-03-13T01:20:58;8.43;;;6.20;;
78148;SDS011;67396;42.664;23.382;2023-03-13T01:25:49;7.80;;;5.10;;
78148;SDS011;67396;42.664;23.382;2023-03-13T01:28:15;7.03;;;5.65;;
78148;SDS011;67396;42.664;23.382;2023-03-13T01:30:40;8.52;;;5.78;;
78148;SDS011;67396;42.664;23.382;2023-03-13T01:35:31;10.35;;;5.32;;
78148;SDS011;67396;42.664;23.382;2023-03-13T01:40:21;7.40;;;5.00;;
78148;SDS011;67396;42.664;23.382;2023-03-13T01:48:16;7.03;;;5.13;;
78148;SDS011;67396;42.664;23.382;2023-03-13T01:53:07;9.77;;;5.63;;
78148;SDS011;67396;42.664;23.382;2023-03-13T01:57:58;8.18;;;4.93;;
78148;SDS011;67396;42.664;23.382;2023-03-13T02:02:54;7.82;;;5.10;;
78148;SDS011;67396;42.664;23.382;2023-03-13T02:05:24;10.70;;;6.05;;
78148;SDS011;67396;42.664;23.382;2023-03-13T02:08:03;9.98;;;5.38;;
78148;SDS011;67396;42.664;23.382;2023-03-13T02:10:33;13.25;;;7.85;;
78148;SDS011;67396;42.664;23.382;2023-03-13T02:13:06;15.48;;;7.97;;
78148;SDS011;67396;42.664;23.382;2023-03-13T02:15:31;13.23;;;8.05;;
78148;SDS011;67396;42.664;23.382;2023-03-13T02:17:58;14.18;;;8.30;;
78148;SDS011;67396;42.664;23.382;2023-03-13T02:20:24;15.63;;;8.32;;
78148;SDS011;67396;42.664;23.382;2023-03-13T02:28:12;11.05;;;7.25;;
78148;SDS011;67396;42.664;23.382;2023-03-13T02:30:38;11.13;;;6.25;;
78148;SDS011;67396;42.664;23.382;2023-03-13T02:33:05;16.52;;;7.18;;
78148;SDS011;67396;42.664;23.382;2023-03-13T02:35:31;9.27;;;5.80;;
78148;SDS011;67396;42.664;23.382;2023-03-13T02:37:59;17.50;;;8.00;;
78148;SDS011;67396;42.664;23.382;2023-03-13T02:40:28;12.73;;;7.38;;
78148;SDS011;67396;42.664;23.382;2023-03-13T02:42:57;14.82;;;8.80;;
78148;SDS011;67396;42.664;23.382;2023-03-13T02:45:25;14.18;;;8.55;;
78148;SDS011;67396;42.664;23.382;2023-03-13T02:47:51;16.67;;;9.50;;
78148;SDS011;67396;42.664;23.382;2023-03-13T02:52:42;15.45;;;9.10;;
78148;SDS011;67396;42.664;23.382;2023-03-13T02:55:14;18.05;;;11.55;;
78148;SDS011;67396;42.664;23.382;2023-03-13T02:57:42;15.40;;;9.85;;
78148;SDS011;67396;42.664;23.382;2023-03-13T03:00:09;23.35;;;12.38;;
78148;SDS011;67396;42.664;23.382;2023-03-13T03:02:41;18.95;;;12.23;;
78148;SDS011;67396;42.664;23.382;2023-03-13T03:05:07;24.35;;;12.80;;
78148;SDS011;67396;42.664;23.382;2023-03-13T03:09:58;25.27;;;12.48;;
78148;SDS011;67396;42.664;23.382;2023-03-13T03:14:48;17.52;;;10.30;;
78148;SDS011;67396;42.664;23.382;2023-03-13T03:17:14;16.10;;;9.98;;
78148;SDS011;67396;42.664;23.382;2023-03-13T03:19:39;17.33;;;10.20;;
78148;SDS011;67396;42.664;23.382;2023-03-13T03:24:30;19.43;;;11.70;;
78148;SDS011;67396;42.664;23.382;2023-03-13T03:29:20;23.57;;;10.77;;
78148;SDS011;67396;42.664;23.382;2023-03-13T03:34:11;18.38;;;12.30;;
78148;SDS011;67396;42.664;23.382;2023-03-13T03:39:02;23.27;;;13.17;;
78148;SDS011;67396;42.664;23.382;2023-03-13T03:43:53;24.67;;;13.23;;
78148;SDS011;67396;42.664;23.382;2023-03-13T03:48:44;19.23;;;10.60;;
78148;SDS011;67396;42.664;23.382;2023-03-13T03:58:26;19.85;;;10.40;;
78148;SDS011;67396;42.664;23.382;2023-03-13T04:03:20;20.52;;;10.18;;
78148;SDS011;67396;42.664;23.382;2023-03-13T04:08:11;22.70;;;8.60;;
78148;SDS011;67396;42.664;23.382;2023-03-13T04:13:01;13.88;;;7.57;;
78148;SDS011;67396;42.664;23.382;2023-03-13T04:15:27;25.42;;;9.00;;
78148;SDS011;67396;42.664;23.382;2023-03-13T04:20:18;22.77;;;11.65;;
78148;SDS011;67396;42.664;23.382;2023-03-13T04:25:08;16.48;;;8.43;;
78148;SDS011;67396;42.664;23.382;2023-03-13T04:30:00;20.00;;;8.65;;
78148;SDS011;67396;42.664;23.382;2023-03-13T04:34:51;14.00;;;8.97;;
78148;SDS011;67396;42.664;23.382;2023-03-13T04:39:42;17.20;;;8.57;;
78148;SDS011;67396;42.664;23.382;2023-03-13T04:44:34;13.57;;;7.30;;
78148;SDS011;67396;42.664;23.382;2023-03-13T04:49:25;12.47;;;7.03;;
78148;SDS011;67396;42.664;23.382;2023-03-13T04:51:50;16.27;;;10.23;;
78148;SDS011;67396;42.664;23.382;2023-03-13T04:54:16;17.38;;;9.70;;
78148;SDS011;67396;42.664;23.382;2023-03-13T04:56:41;18.23;;;10.32;;
78148;SDS011;67396;42.664;23.382;2023-03-13T04:59:06;20.65;;;9.48;;
78148;SDS011;67396;42.664;23.382;2023-03-13T05:03:57;16.38;;;10.07;;
78148;SDS011;67396;42.664;23.382;2023-03-13T05:06:23;15.35;;;10.48;;
78148;SDS011;67396;42.664;23.382;2023-03-13T05:11:13;20.87;;;9.40;;
78148;SDS011;67396;42.664;23.382;2023-03-13T05:16:04;18.27;;;11.13;;
78148;SDS011;67396;42.664;23.382;2023-03-13T05:23:21;15.60;;;8.93;;
78148;SDS011;67396;42.664;23.382;2023-03-13T05:28:11;17.02;;;9.05;;
78148;SDS011;67396;42.664;23.382;2023-03-13T05:33:02;18.38;;;9.82;;
78148;SDS011;67396;42.664;23.382;2023-03-13T05:35:28;18.23;;;10.63;;
78148;SDS011;67396;42.664;23.382;2023-03-13T05:40:19;16.30;;;9.55;;
78148;SDS011;67396;42.664;23.382;2023-03-13T05:42:44;18.88;;;9.20;;
78148;SDS011;67396;42.664;23.382;2023-03-13T05:45:10;19.65;;;10.70;;
78148;SDS011;67396;42.664;23.382;2023-03-13T05:47:35;13.85;;;9.48;;
78148;SDS011;67396;42.664;23.382;2023-03-13T05:50:02;20.08;;;10.32;;
78148;SDS011;67396;42.664;23.382;2023-03-13T05:52:29;15.98;;;9.15;;
78148;SDS011;67396;42.664;23.382;2023-03-13T05:54:54;21.30;;;10.68;;
78148;SDS011;67396;42.664;23.382;2023-03-13T05:57:20;16.50;;;10.50;;
78148;SDS011;67396;42.664;23.382;2023-03-13T05:59:45;14.65;;;9.65;;
78148;SDS011;67396;42.664;23.382;2023-03-13T06:02:11;14.73;;;8.85;;
78148;SDS011;67396;42.664;23.382;2023-03-13T06:04:36;16.55;;;9.60;;
78148;SDS011;67396;42.664;23.382;2023-03-13T06:07:02;14.88;;;9.55;;
78148;SDS011;67396;42.664;23.382;2023-03-13T06:09:27;27.00;;;14.80;;
78148;SDS011;67396;42.664;23.382;2023-03-13T06:11:53;31.75;;;16.88;;
78148;SDS011;67396;42.664;23.382;2023-03-13T06:14:19;43.28;;;23.20;;
78148;SDS011;67396;42.664;23.382;2023-03-13T06:16:44;45.00;;;23.35;;
78148;SDS011;67396;42.664;23.382;2023-03-13T06:19:10;51.30;;;25.02;;
78148;SDS011;67396;42.664;23.382;2023-03-13T06:21:35;39.42;;;20.55;;
78148;SDS011;67396;42.664;23.382;2023-03-13T06:24:01;36.50;;;18.27;;
78148;SDS011;67396;42.664;23.382;2023-03-13T06:26:26;34.58;;;17.77;;
78148;SDS011;67396;42.664;23.382;2023-03-13T06:28:52;26.38;;;16.25;;
78148;SDS011;67396;42.664;23.382;2023-03-13T06:31:17;30.25;;;17.35;;
78148;SDS011;67396;42.664;23.382;2023-03-13T06:33:43;34.22;;;16.85;;
78148;SDS011;67396;42.664;23.382;2023-03-13T06:36:08;29.33;;;15.27;;
78148;SDS011;67396;42.664;23.382;2023-03-13T06:38:34;26.52;;;15.00;;
78148;SDS011;67396;42.664;23.382;2023-03-13T06:41:00;25.80;;;16.70;;
78148;SDS011;67396;42.664;23.382;2023-03-13T06:43:25;21.75;;;13.18;;
78148;SDS011;67396;42.664;23.382;2023-03-13T06:45:51;26.90;;;14.52;;
78148;SDS011;67396;42.664;23.382;2023-03-13T06:48:16;23.77;;;16.08;;
78148;SDS011;67396;42.664;23.382;2023-03-13T06:50:42;30.13;;;15.73;;
78148;SDS011;67396;42.664;23.382;2023-03-13T06:53:15;25.13;;;13.98;;
78148;SDS011;67396;42.664;23.382;2023-03-13T06:55:42;24.02;;;15.00;;
78148;SDS011;67396;42.664;23.382;2023-03-13T06:58:08;24.58;;;15.23;;
78148;SDS011;67396;42.664;23.382;2023-03-13T07:00:34;27.95;;;16.20;;
78148;SDS011;67396;42.664;23.382;2023-03-13T07:02:59;37.90;;;14.82;;
78148;SDS011;67396;42.664;23.382;2023-03-13T07:05:25;25.88;;;15.45;;
78148;SDS011;67396;42.664;23.382;2023-03-13T07:07:51;22.15;;;13.57;;
78148;SDS011;67396;42.664;23.382;2023-03-13T07:10:16;25.23;;;15.43;;
78148;SDS011;67396;42.664;23.382;2023-03-13T07:12:41;24.75;;;14.48;;
78148;SDS011;67396;42.664;23.382;2023-03-13T07:15:08;29.20;;;14.70;;
78148;SDS011;67396;42.664;23.382;2023-03-13T07:17:35;27.50;;;16.30;;
78148;SDS011;67396;42.664;23.382;2023-03-13T07:20:01;31.63;;;17.02;;
78148;SDS011;67396;42.664;23.382;2023-03-13T07:22:28;28.15;;;14.55;;
78148;SDS011;67396;42.664;23.382;2023-03-13T07:24:54;24.95;;;15.40;;
78148;SDS011;67396;42.664;23.382;2023-03-13T07:27:19;23.90;;;14.65;;
78148;SDS011;67396;42.664;23.382;2023-03-13T07:29:45;28.85;;;14.45;;
78148;SDS011;67396;42.664;23.382;2023-03-13T07:32:14;30.15;;;15.73;;
78148;SDS011;67396;42.664;23.382;2023-03-13T07:34:40;27.80;;;16.60;;
78148;SDS011;67396;42.664;23.382;2023-03-13T07:37:10;28.95;;;16.55;;
78148;SDS011;67396;42.664;23.382;2023-03-13T07:39:40;24.73;;;15.15;;
78148;SDS011;67396;42.664;23.382;2023-03-13T07:42:07;24.23;;;15.82;;
78148;SDS011;67396;42.664;23.382;2023-03-13T07:44:34;23.38;;;13.82;;
78148;SDS011;67396;42.664;23.382;2023-03-13T07:47:00;27.65;;;14.85;;
78148;SDS011;67396;42.664;23.382;2023-03-13T07:49:26;24.42;;;16.30;;
78148;SDS011;67396;42.664;23.382;2023-03-13T07:51:55;27.88;;;16.58;;
78148;SDS011;67396;42.664;23.382;2023-03-13T07:54:37;25.40;;;16.27;;
78148;SDS011;67396;42.664;23.382;2023-03-13T07:57:25;23.15;;;14.90;;
78148;SDS011;67396;42.664;23.382;2023-03-13T07:59:51;23.08;;;12.75;;
78148;SDS011;67396;42.664;23.382;2023-03-13T08:02:16;25.92;;;14.05;;
78148;SDS011;67396;42.664;23.382;2023-03-13T08:04:42;22.42;;;11.63;;
78148;SDS011;67396;42.664;23.382;2023-03-13T08:07:08;28.27;;;14.10;;
78148;SDS011;67396;42.664;23.382;2023-03-13T08:09:33;30.73;;;16.20;;
78148;SDS011;67396;42.664;23.382;2023-03-13T08:11:59;27.13;;;13.95;;
78148;SDS011;67396;42.664;23.382;2023-03-13T08:14:24;21.15;;;14.90;;
78148;SDS011;67396;42.664;23.382;2023-03-13T08:16:50;21.35;;;14.38;;
78148;SDS011;67396;42.664;23.382;2023-03-13T08:19:15;22.10;;;14.15;;
78148;SDS011;67396;42.664;23.382;2023-03-13T08:21:41;24.70;;;15.18;;
78148;SDS011;67396;42.664;23.382;2023-03-13T08:24:07;20.15;;;12.48;;
78148;SDS011;67396;42.664;23.382;2023-03-13T08:26:36;19.27;;;13.20;;
78148;SDS011;67396;42.664;23.382;2023-03-13T08:29:06;21.77;;;13.65;;
78148;SDS011;67396;42.664;23.382;2023-03-13T08:31:41;23.02;;;13.10;;
78148;SDS011;67396;42.664;23.382;2023-03-13T08:34:12;22.60;;;13.10;;
78148;SDS011;67396;42.664;23.382;2023-03-13T08:36:38;20.20;;;13.40;;
78148;SDS011;67396;42.664;23.382;2023-03-13T08:39:06;23.23;;;13.93;;
78148;SDS011;67396;42.664;23.382;2023-03-13T08:41:35;20.17;;;13.85;;
78148;SDS011;67396;42.664;23.382;2023-03-13T08:44:01;19.20;;;12.82;;
78148;SDS011;67396;42.664;23.382;2023-03-13T08:46:29;19.48;;;14.13;;
78148;SDS011;67396;42.664;23.382;2023-03-13T08:48:56;25.35;;;13.95;;
78148;SDS011;67396;42.664;23.382;2023-03-13T08:51:22;21.90;;;14.65;;
78148;SDS011;67396;42.664;23.382;2023-03-13T08:53:50;22.23;;;13.93;;
78148;SDS011;67396;42.664;23.382;2023-03-13T08:56:17;24.50;;;14.95;;
78148;SDS011;67396;42.664;23.382;2023-03-13T08:58:51;27.70;;;16.27;;
78148;SDS011;67396;42.664;23.382;2023-03-13T09:01:18;23.02;;;14.48;;
78148;SDS011;67396;42.664;23.382;2023-03-13T09:03:45;25.45;;;15.88;;
78148;SDS011;67396;42.664;23.382;2023-03-13T09:06:10;22.38;;;14.75;;
78148;SDS011;67396;42.664;23.382;2023-03-13T09:08:36;22.90;;;15.80;;
78148;SDS011;67396;42.664;23.382;2023-03-13T09:11:05;24.27;;;13.68;;
78148;SDS011;67396;42.664;23.382;2023-03-13T09:13:34;21.75;;;13.75;;
78148;SDS011;67396;42.664;23.382;2023-03-13T09:16:02;23.00;;;14.27;;
78148;SDS011;67396;42.664;23.382;2023-03-13T09:18:30;26.35;;;13.90;;
78148;SDS011;67396;42.664;23.382;2023-03-13T09:20:56;22.05;;;13.40;;
78148;SDS011;67396;42.664;23.382;2023-03-13T09:23:22;24.08;;;14.07;;
78148;SDS011;67396;42.664;23.382;2023-03-13T09:25:51;20.75;;;13.07;;
78148;SDS011;67396;42.664;23.382;2023-03-13T09:28:17;30.20;;;16.38;;
78148;SDS011;67396;42.664;23.382;2023-03-13T09:30:42;27.33;;;14.02;;
78148;SDS011;67396;42.664;23.382;2023-03-13T09:33:09;18.85;;;12.15;;
78148;SDS011;67396;42.664;23.382;2023-03-13T09:35:36;22.77;;;13.73;;
78148;SDS011;67396;42.664;23.382;2023-03-13T09:38:03;21.75;;;13.48;;
78148;SDS011;67396;42.664;23.382;2023-03-13T09:40:28;22.35;;;12.60;;
78148;SDS011;67396;42.664;23.382;2023-03-13T09:42:55;18.55;;;11.60;;
78148;SDS011;67396;42.664;23.382;2023-03-13T09:48:06;17.77;;;12.43;;
78148;SDS011;67396;42.664;23.382;2023-03-13T09:56:46;27.77;;;14.57;;
78148;SDS011;67396;42.664;23.382;2023-03-13T10:02:04;18.48;;;11.68;;
78148;SDS011;67396;42.664;23.382;2023-03-13T10:04:47;18.85;;;12.77;;
78148;SDS011;67396;42.664;23.382;2023-03-13T10:07:17;22.65;;;11.65;;
78148;SDS011;67396;42.664;23.382;2023-03-13T10:09:45;23.70;;;11.75;;
78148;SDS011;67396;42.664;23.382;2023-03-13T10:12:13;21.45;;;12.00;;
78148;SDS011;67396;42.664;23.382;2023-03-13T10:17:34;20.83;;;11.98;;
78148;SDS011;67396;42.664;23.382;2023-03-13T10:23:03;37.72;;;12.93;;
78148;SDS011;67396;42.664;23.382;2023-03-13T10:25:36;30.52;;;16.42;;
78148;SDS011;67396;42.664;23.382;2023-03-13T10:28:02;21.60;;;11.85;;
78148;SDS011;67396;42.664;23.382;2023-03-13T10:30:30;24.58;;;13.18;;
78148;SDS011;67396;42.664;23.382;2023-03-13T10:33:25;22.88;;;12.38;;
78148;SDS011;67396;42.664;23.382;2023-03-13T10:36:17;23.45;;;11.05;;
78148;SDS011;67396;42.664;23.382;2023-03-13T10:39:18;24.17;;;13.45;;
78148;SDS011;67396;42.664;23.382;2023-03-13T10:45:42;19.10;;;11.95;;
78148;SDS011;67396;42.664;23.382;2023-03-13T10:52:31;21.65;;;11.63;;
78148;SDS011;67396;42.664;23.382;2023-03-13T10:55:24;19.35;;;11.05;;
78148;SDS011;67396;42.664;23.382;2023-03-13T10:58:00;21.52;;;11.32;;
78148;SDS011;67396;42.664;23.382;2023-03-13T11:00:37;19.52;;;11.88;;
78148;SDS011;67396;42.664;23.382;2023-03-13T11:03:18;18.92;;;11.32;;
78148;SDS011;67396;42.664;23.382;2023-03-13T11:05:57;20.83;;;12.57;;
78148;SDS011;67396;42.664;23.382;2023-03-13T11:11:01;20.90;;;12.00;;
78148;SDS011;67396;42.664;23.382;2023-03-13T11:13:36;19.67;;;12.10;;
78148;SDS011;67396;42.664;23.382;2023-03-13T11:16:16;18.15;;;10.45;;
78148;SDS011;67396;42.664;23.382;2023-03-13T11:21:43;22.17;;;11.65;;
78148;SDS011;67396;42.664;23.382;2023-03-13T11:24:42;17.13;;;11.30;;
78148;SDS011;67396;42.664;23.382;2023-03-13T11:30:12;16.23;;;10.95;;
78148;SDS011;67396;42.664;23.382;2023-03-13T11:32:54;22.05;;;11.93;;
78148;SDS011;67396;42.664;23.382;2023-03-13T11:37:57;18.60;;;10.95;;
78148;SDS011;67396;42.664;23.382;2023-03-13T11:46:12;19.42;;;10.57;;
78148;SDS011;67396;42.664;23.382;2023-03-13T11:52:11;24.00;;;11.45;;
78148;SDS011;67396;42.664;23.382;2023-03-13T12:11:23;18.85;;;10.40;;
78148;SDS011;67396;42.664;23.382;2023-03-13T12:13:58;15.48;;;9.63;;
78148;SDS011;67396;42.664;23.382;2023-03-13T12:16:59;22.63;;;11.30;;
78148;SDS011;67396;42.664;23.382;2023-03-13T12:19:33;17.13;;;9.93;;
78148;SDS011;67396;42.664;23.382;2023-03-13T12:22:28;18.92;;;11.15;;
78148;SDS011;67396;42.664;23.382;2023-03-13T12:25:41;18.27;;;9.02;;
78148;SDS011;67396;42.664;23.382;2023-03-13T12:39:25;16.52;;;10.25;;
78148;SDS011;67396;42.664;23.382;2023-03-13T12:44:50;21.35;;;10.02;;
78148;SDS011;67396;42.664;23.382;2023-03-13T12:53:13;26.75;;;14.32;;
78148;SDS011;67396;42.664;23.382;2023-03-13T12:58:53;22.55;;;11.05;;
78148;SDS011;67396;42.664;23.382;2023-03-13T13:01:29;23.63;;;10.20;;
78148;SDS011;67396;42.664;23.382;2023-03-13T13:04:32;22.08;;;11.68;;
78148;SDS011;67396;42.664;23.382;2023-03-13T13:06:56;14.75;;;10.68;;
78148;SDS011;67396;42.664;23.382;2023-03-13T13:09:27;19.45;;;11.27;;
78148;SDS011;67396;42.664;23.382;2023-03-13T13:12:01;17.75;;;9.52;;
78148;SDS011;67396;42.664;23.382;2023-03-13T13:23:28;21.25;;;13.25;;
78148;SDS011;67396;42.664;23.382;2023-03-13T13:28:57;20.48;;;12.93;;
78148;SDS011;67396;42.664;23.382;2023-03-13T13:36:55;20.23;;;12.65;;
78148;SDS011;67396;42.664;23.382;2023-03-13T13:47:32;19.27;;;13.25;;
78148;SDS011;67396;42.664;23.382;2023-03-13T13:49:58;19.98;;;11.98;;
78148;SDS011;67396;42.664;23.382;2023-03-13T13:52:40;19.38;;;13.48;;
78148;SDS011;67396;42.664;23.382;2023-03-13T13:57:51;19.25;;;12.93;;
78148;SDS011;67396;42.664;23.382;2023-03-13T14:00:28;18.10;;;12.88;;
78148;SDS011;67396;42.664;23.382;2023-03-13T14:05:55;19.33;;;12.50;;
78148;SDS011;67396;42.664;23.382;2023-03-13T14:08:26;20.75;;;12.90;;
78148;SDS011;67396;42.664;23.382;2023-03-13T14:11:04;20.10;;;12.18;;
78148;SDS011;67396;42.664;23.382;2023-03-13T14:13:43;29.55;;;13.65;;
78148;SDS011;67396;42.664;23.382;2023-03-13T14:18:56;20.45;;;12.63;;
78148;SDS011;67396;42.664;23.382;2023-03-13T14:21:25;23.45;;;13.30;;
78148;SDS011;67396;42.664;23.382;2023-03-13T14:23:51;31.92;;;15.48;;
78148;SDS011;67396;42.664;23.382;2023-03-13T14:29:06;31.23;;;15.10;;
78148;SDS011;67396;42.664;23.382;2023-03-13T14:31:51;27.20;;;14.55;;
78148;SDS011;67396;42.664;23.382;2023-03-13T14:37:33;22.73;;;13.15;;
78148;SDS011;67396;42.664;23.382;2023-03-13T14:40:14;24.90;;;12.68;;
78148;SDS011;67396;42.664;23.382;2023-03-13T14:42:57;24.05;;;13.23;;
78148;SDS011;67396;42.664;23.382;2023-03-13T14:45:35;23.42;;;11.77;;
78148;SDS011;67396;42.664;23.382;2023-03-13T14:48:22;20.67;;;11.60;;
78148;SDS011;67396;42.664;23.382;2023-03-13T14:51:00;23.08;;;11.02;;
78148;SDS011;67396;42.664;23.382;2023-03-13T14:53:54;18.55;;;11.38;;
78148;SDS011;67396;42.664;23.382;2023-03-13T14:56:37;20.95;;;13.02;;
78148;SDS011;67396;42.664;23.382;2023-03-13T14:59:22;32.08;;;13.93;;
78148;SDS011;67396;42.664;23.382;2023-03-13T15:02:01;22.42;;;13.60;;
78148;SDS011;67396;42.664;23.382;2023-03-13T15:04:53;17.92;;;11.27;;
78148;SDS011;67396;42.664;23.382;2023-03-13T15:07:18;19.23;;;12.43;;
78148;SDS011;67396;42.664;23.382;2023-03-13T15:09:45;21.20;;;11.52;;
78148;SDS011;67396;42.664;23.382;2023-03-13T15:12:15;24.77;;;14.55;;
78148;SDS011;67396;42.664;23.382;2023-03-13T15:14:45;26.17;;;15.25;;
78148;SDS011;67396;42.664;23.382;2023-03-13T15:17:13;27.67;;;14.80;;
78148;SDS011;67396;42.664;23.382;2023-03-13T15:19:58;24.65;;;12.43;;
78148;SDS011;67396;42.664;23.382;2023-03-13T15:22:32;24.92;;;12.23;;
78148;SDS011;67396;42.664;23.382;2023-03-13T15:25:00;21.95;;;12.13;;
78148;SDS011;67396;42.664;23.382;2023-03-13T15:30:30;21.63;;;12.18;;
78148;SDS011;67396;42.664;23.382;2023-03-13T15:32:55;20.35;;;11.95;;
78148;SDS011;67396;42.664;23.382;2023-03-13T15:35:22;26.17;;;12.65;;
78148;SDS011;67396;42.664;23.382;2023-03-13T15:40:18;30.75;;;12.52;;
78148;SDS011;67396;42.664;23.382;2023-03-13T15:45:53;25.92;;;12.93;;
78148;SDS011;67396;42.664;23.382;2023-03-13T15:48:19;27.67;;;12.77;;
78148;SDS011;67396;42.664;23.382;2023-03-13T15:50:59;21.42;;;13.48;;
78148;SDS011;67396;42.664;23.382;2023-03-13T15:53:29;25.65;;;13.88;;
78148;SDS011;67396;42.664;23.382;2023-03-13T15:55:57;27.17;;;13.73;;
78148;SDS011;67396;42.664;23.382;2023-03-13T15:58:25;23.77;;;13.35;;
78148;SDS011;67396;42.664;23.382;2023-03-13T16:00:52;20.77;;;12.15;;
78148;SDS011;67396;42.664;23.382;2023-03-13T16:03:20;22.17;;;13.00;;
78148;SDS011;67396;42.664;23.382;2023-03-13T16:05:49;19.38;;;12.25;;
78148;SDS011;67396;42.664;23.382;2023-03-13T16:08:19;22.50;;;13.82;;
78148;SDS011;67396;42.664;23.382;2023-03-13T16:10:47;20.20;;;12.75;;
78148;SDS011;67396;42.664;23.382;2023-03-13T16:13:14;26.38;;;13.25;;
78148;SDS011;67396;42.664;23.382;2023-03-13T16:15:40;24.65;;;12.45;;
78148;SDS011;67396;42.664;23.382;2023-03-13T16:18:06;21.13;;;13.18;;
78148;SDS011;67396;42.664;23.382;2023-03-13T16:20:45;26.73;;;13.10;;
78148;SDS011;67396;42.664;23.382;2023-03-13T16:23:10;22.83;;;13.23;;
78148;SDS011;67396;42.664;23.382;2023-03-13T16:25:36;22.95;;;12.57;;
78148;SDS011;67396;42.664;23.382;2023-03-13T16:28:02;18.58;;;12.73;;
78148;SDS011;67396;42.664;23.382;2023-03-13T16:30:29;25.35;;;16.23;;
78148;SDS011;67396;42.664;23.382;2023-03-13T16:32:59;21.55;;;13.20;;
78148;SDS011;67396;42.664;23.382;2023-03-13T16:35:25;24.88;;;14.40;;
78148;SDS011;67396;42.664;23.382;2023-03-13T16:37:52;36.30;;;14.48;;
78148;SDS011;67396;42.664;23.382;2023-03-13T16:40:21;25.42;;;14.30;;
78148;SDS011;67396;42.664;23.382;2023-03-13T16:42:49;25.17;;;14.27;;
78148;SDS011;67396;42.664;23.382;2023-03-13T16:45:14;27.95;;;13.48;;
78148;SDS011;67396;42.664;23.382;2023-03-13T16:47:41;30.50;;;15.95;;
78148;SDS011;67396;42.664;23.382;2023-03-13T16:50:16;34.72;;;18.50;;
78148;SDS011;67396;42.664;23.382;2023-03-13T16:52:43;31.40;;;17.23;;
78148;SDS011;67396;42.664;23.382;2023-03-13T16:55:08;35.08;;;18.17;;
78148;SDS011;67396;42.664;23.382;2023-03-13T16:57:34;35.35;;;17.60;;
78148;SDS011;67396;42.664;23.382;2023-03-13T17:00:00;37.10;;;20.23;;
78148;SDS011;67396;42.664;23.382;2023-03-13T17:02:27;39.00;;;19.60;;
78148;SDS011;67396;42.664;23.382;2023-03-13T17:04:53;34.78;;;19.40;;
78148;SDS011;67396;42.664;23.382;2023-03-13T17:07:22;40.42;;;19.50;;
78148;SDS011;67396;42.664;23.382;2023-03-13T17:09:50;36.00;;;20.08;;
78148;SDS011;67396;42.664;23.382;2023-03-13T17:12:17;37.92;;;20.58;;
78148;SDS011;67396;42.664;23.382;2023-03-13T17:14:43;45.38;;;22.35;;
78148;SDS011;67396;42.664;23.382;2023-03-13T17:17:13;40.97;;;21.25;;
78148;SDS011;67396;42.664;23.382;2023-03-13T17:19:42;37.58;;;19.45;;
78148;SDS011;67396;42.664;23.382;2023-03-13T17:22:09;73.80;;;35.78;;
78148;SDS011;67396;42.664;23.382;2023-03-13T17:24:37;47.47;;;26.15;;
78148;SDS011;67396;42.664;23.382;2023-03-13T17:27:13;51.17;;;24.25;;
78148;SDS011;67396;42.664;23.382;2023-03-13T17:29:42;41.40;;;21.70;;
78148;SDS011;67396;42.664;23.382;2023-03-13T17:32:09;58.72;;;21.52;;
78148;SDS011;67396;42.664;23.382;2023-03-13T17:34:41;41.45;;;20.75;;
78148;SDS011;67396;42.664;23.382;2023-03-13T17:40:26;36.08;;;17.80;;
78148;SDS011;67396;42.664;23.382;2023-03-13T17:42:56;36.53;;;19.13;;
78148;SDS011;67396;42.664;23.382;2023-03-13T17:45:22;27.25;;;16.25;;
78148;SDS011;67396;42.664;23.382;2023-03-13T17:47:51;31.88;;;15.65;;
78148;SDS011;67396;42.664;23.382;2023-03-13T17:50:27;23.80;;;15.15;;
78148;SDS011;67396;42.664;23.382;2023-03-13T17:52:58;26.02;;;15.55;;
78148;SDS011;67396;42.664;23.382;2023-03-13T18:01:22;25.70;;;13.43;;
78148;SDS011;67396;42.664;23.382;2023-03-13T18:03:58;21.17;;;12.15;;
78148;SDS011;67396;42.664;23.382;2023-03-13T18:06:26;24.00;;;13.13;;
78148;SDS011;67396;42.664;23.382;2023-03-13T18:08:58;22.63;;;12.40;;
78148;SDS011;67396;42.664;23.382;2023-03-13T18:11:30;19.95;;;11.18;;
78148;SDS011;67396;42.664;23.382;2023-03-13T18:13:55;18.08;;;11.00;;
78148;SDS011;67396;42.664;23.382;2023-03-13T18:16:44;19.98;;;10.25;;
78148;SDS011;67396;42.664;23.382;2023-03-13T18:19:19;16.80;;;8.55;;
78148;SDS011;67396;42.664;23.382;2023-03-13T18:21:47;10.85;;;7.07;;
78148;SDS011;67396;42.664;23.382;2023-03-13T18:24:13;16.85;;;7.03;;
78148;SDS011;67396;42.664;23.382;2023-03-13T18:26:42;11.90;;;7.30;;
78148;SDS011;67396;42.664;23.382;2023-03-13T18:29:16;12.32;;;7.35;;
78148;SDS011;67396;42.664;23.382;2023-03-13T18:31:50;12.57;;;7.80;;
78148;SDS011;67396;42.664;23.382;2023-03-13T18:34:18;12.63;;;6.78;;
78148;SDS011;67396;42.664;23.382;2023-03-13T18:36:44;11.80;;;6.40;;